Airfield :
LOGIN :

Register | Disclaimer

   EN    FR    IT 

 










Legend :    VFR   Marginal VFR   IFR   Intensive IFR   Very Intensive IFR
Visi :
Ceiling :
>= 8 km
>= 3000ft
5 to 8 km
1000 to 3000 ft
1500m to 5 km
500 to 1000 ft
800 to 1500m
200 to 500 ft
< 800m
< 200 ft
Symbols :   Thunderstorms  Fog  Heavy snow  Heavy precipitations  Wind > 20 kt
SIGMETs :     Misc.  Thunderstorms  Icing  Turbulence  Mountain Waves  Volcanic Ashes






- Airport Elevation : 1516 ft
- IATA code : AGB


EDMA - Augsburg

CURRENT METAR :
  • 242350Z AUTO 16003KT 100V260 9999 // OVC006/// 02/01 Q1021

EXPIRED METARs :
  • 242320Z AUTO 14004KT 100V170 9999 // OVC006/// 02/01 Q1022
  • 242250Z AUTO 09003KT 040V160 9999 // OVC006/// 03/01 Q1022
  • 242220Z AUTO VRB02KT 9999 // OVC007/// 03/01 Q1022
  • 242150Z AUTO 10004KT 070V170 9999 // OVC007/// 03/02 Q1022
  • 242120Z AUTO 10004KT 070V150 9999 // OVC008/// 03/01 Q1022
  • 242050Z AUTO 12003KT 070V150 9999 // OVC009/// 03/02 Q1022

TAF TAF EDMA
Valid from the 24 at 18:00 until the 25 at 03:00 UTC


241700Z 2418/2503 10004KT 9999 OVC010
BECMG 2418/2420 4000 BR OVC008
BECMG 2420/2423 2500 BR OVC004



MET'MAP, your aeronautical weather chart ! - Copyright ORBIFLY December 2007 - Disclaimer

ORBIFLY MET'MAP TEAM :

Programming & Development : Alexandra Zaïnal
Concept & original design : Baudouin d'Aumeries
Assistance for programming : Marc-Olivier Méhu
Technical & hardware support : Manuel Goepfert

Contact : metmap@orbifly.com




SOURCES & CREDITS :

   NOAA